Time;durP1;ratioP1;P1;durP2;ratioP2;P2;SDS_P1;SDS_P2;PMS_P1;PMS_P2;Temp;Humidity;BMP_temperature;BMP_pressure;BME280_temperature;BME280_humidity;BME280_pressure;Samples;Min_cycle;Max_cycle;Signal;HPM_P1;HPM_P2
2021/12/07 00:00:11;;;;;;;19.48;11.98;;;2.90;82.10;;;;;;5032128;28;20670;-67
2021/12/07 00:02:36;;;;;;;19.38;11.98;;;2.90;82.00;;;;;;5033235;28;20570;-67
2021/12/07 00:05:03;;;;;;;19.27;12.05;;;2.90;81.90;;;;;;5035860;28;20033;-67
2021/12/07 00:07:29;;;;;;;18.90;11.85;;;2.90;81.80;;;;;;5048081;28;20055;-66
2021/12/07 00:09:55;;;;;;;19.65;11.95;;;2.90;81.70;;;;;;5034339;28;20580;-66
2021/12/07 00:12:21;;;;;;;18.30;11.73;;;2.90;81.80;;;;;;5031162;28;20037;-67
2021/12/07 00:14:47;;;;;;;19.13;11.70;;;2.90;81.90;;;;;;5032584;28;20033;-65
2021/12/07 00:17:12;;;;;;;18.52;11.88;;;2.90;81.80;;;;;;5033322;28;20040;-67
2021/12/07 00:19:38;;;;;;;19.35;11.85;;;2.90;81.80;;;;;;5032725;28;20087;-67
2021/12/07 00:22:06;;;;;;;18.08;11.93;;;2.90;81.80;;;;;;5033134;28;20072;-67
2021/12/07 00:24:32;;;;;;;20.25;11.80;;;2.90;81.80;;;;;;5034763;28;20055;-65
2021/12/07 00:26:58;;;;;;;19.90;11.50;;;2.90;81.80;;;;;;5034402;28;20523;-66
2021/12/07 00:29:24;;;;;;;18.80;10.73;;;2.90;81.70;;;;;;5035289;28;20052;-66
2021/12/07 00:32:04;;;;;;;16.52;10.35;;;3.00;82.60;;;;;;5031728;28;20456;-67
2021/12/07 00:36:59;;;;;;;15.85;9.65;;;3.00;81.50;;;;;;5038752;28;20033;-67
2021/12/07 00:39:25;;;;;;;15.00;9.55;;;3.00;81.60;;;;;;5039176;28;20065;-67
2021/12/07 00:41:53;;;;;;;15.57;9.35;;;3.10;81.40;;;;;;5036194;28;20033;-66
2021/12/07 00:44:21;;;;;;;12.82;8.68;;;3.10;81.40;;;;;;5035206;28;20060;-67
2021/12/07 00:46:47;;;;;;;13.93;9.13;;;3.10;81.40;;;;;;5037350;28;20116;-67
2021/12/07 00:49:13;;;;;;;15.18;8.40;;;3.20;81.30;;;;;;5038019;28;20033;-67
2021/12/07 00:51:39;;;;;;;13.88;8.98;;;3.20;81.20;;;;;;5053043;28;20061;-67
2021/12/07 00:54:05;;;;;;;12.00;8.27;;;3.20;81.10;;;;;;5037484;28;20148;-66
2021/12/07 00:56:31;;;;;;;14.18;8.35;;;3.20;81.00;;;;;;5034432;28;20052;-67
2021/12/07 00:59:15;;;;;;;13.00;8.15;;;3.30;81.00;;;;;;5035459;28;20080;-67
2021/12/07 01:01:41;;;;;;;12.48;8.10;;;3.30;80.80;;;;;;5036928;28;20029;-67
2021/12/07 01:04:07;;;;;;;11.05;7.57;;;3.30;80.80;;;;;;5038055;28;20086;-67
2021/12/07 01:06:45;;;;;;;11.77;7.70;;;3.30;80.70;;;;;;5036778;28;20033;-67
2021/12/07 01:09:31;;;;;;;10.90;7.85;;;3.30;80.70;;;;;;5038218;28;20060;-67
2021/12/07 01:25:45;;;;;;;10.15;7.25;;;3.20;80.50;;;;;;5037388;28;20408;-66
2021/12/07 01:28:22;;;;;;;10.48;7.57;;;3.20;80.60;;;;;;5040110;28;20034;-67
2021/12/07 01:30:57;;;;;;;10.00;7.00;;;3.20;80.60;;;;;;5038454;28;20037;-67
2021/12/07 01:36:15;;;;;;;12.38;7.85;;;3.20;80.70;;;;;;5036689;28;20116;-67
2021/12/07 02:00:09;;;;;;;10.38;7.32;;;3.10;81.30;;;;;;5036866;28;20357;-64
2021/12/07 02:02:34;;;;;;;11.15;7.25;;;3.10;81.50;;;;;;5036531;28;20037;-67
2021/12/07 02:05:00;;;;;;;12.30;7.65;;;3.10;81.60;;;;;;5034304;28;20102;-66
2021/12/07 02:07:27;;;;;;;9.90;7.15;;;3.10;81.70;;;;;;5036596;28;20127;-66
2021/12/07 02:09:56;;;;;;;9.68;7.25;;;3.10;82.00;;;;;;5036886;28;20063;-67
2021/12/07 02:12:22;;;;;;;10.85;7.38;;;3.00;82.00;;;;;;5033325;28;20043;-66
2021/12/07 02:14:48;;;;;;;11.48;7.38;;;3.00;82.20;;;;;;5034346;28;20048;-66
2021/12/07 02:17:21;;;;;;;8.93;6.70;;;3.00;82.30;;;;;;5035478;28;20037;-66
2021/12/07 02:19:47;;;;;;;9.82;7.28;;;3.00;83.30;;;;;;5035853;28;20037;-66
2021/12/07 02:22:12;;;;;;;10.43;7.22;;;3.00;82.30;;;;;;5036048;28;20030;-66
2021/12/07 02:24:39;;;;;;;11.02;7.85;;;3.00;82.50;;;;;;5035508;28;21072;-66
2021/12/07 02:27:06;;;;;;;8.85;6.57;;;3.10;82.80;;;;;;5034727;28;20451;-67
2021/12/07 02:29:31;;;;;;;9.32;6.90;;;3.10;82.60;;;;;;5038305;28;20108;-66
2021/12/07 02:31:59;;;;;;;10.32;6.70;;;3.10;82.60;;;;;;5036354;28;20079;-66
2021/12/07 02:34:25;;;;;;;8.82;6.82;;;3.10;82.60;;;;;;5035052;28;20652;-66
2021/12/07 02:36:52;;;;;;;9.02;6.80;;;3.10;82.60;;;;;;5033347;28;20416;-67
2021/12/07 02:39:18;;;;;;;9.07;6.55;;;3.10;82.60;;;;;;5031180;28;20377;-66
2021/12/07 02:41:44;;;;;;;7.60;5.75;;;3.10;82.60;;;;;;5038300;28;20075;-66
2021/12/07 02:44:10;;;;;;;9.38;6.45;;;3.10;82.60;;;;;;5037432;28;20033;-67
2021/12/07 02:46:38;;;;;;;9.00;6.18;;;3.10;82.70;;;;;;5033769;28;20555;-66
2021/12/07 02:49:06;;;;;;;7.28;5.43;;;3.10;82.80;;;;;;5033183;28;20037;-66
2021/12/07 02:51:32;;;;;;;7.57;5.70;;;3.20;82.70;;;;;;5032516;28;20500;-66
2021/12/07 02:53:57;;;;;;;6.15;4.97;;;3.20;82.60;;;;;;5033217;28;20029;-66
2021/12/07 02:56:24;;;;;;;6.20;4.88;;;3.20;82.60;;;;;;5031762;28;20052;-65
2021/12/07 02:58:50;;;;;;;6.40;5.55;;;3.20;82.70;;;;;;5032633;28;20547;-66
2021/12/07 03:01:25;;;;;;;6.13;5.10;;;3.20;82.70;;;;;;5037502;28;20064;-66
2021/12/07 03:04:06;;;;;;;5.90;4.70;;;3.20;82.70;;;;;;5034692;28;20118;-67
2021/12/07 03:07:06;;;;;;;6.05;4.75;;;3.20;82.60;;;;;;5033398;28;20029;-66
2021/12/07 03:26:05;;;;;;;3.97;3.57;;;3.30;82.60;;;;;;5032162;28;20039;-67
2021/12/07 03:28:33;;;;;;;3.60;3.25;;;3.30;82.60;;;;;;5034837;28;20791;-65
2021/12/07 03:30:59;;;;;;;3.72;3.20;;;3.30;82.60;;;;;;5034027;28;20497;-66
2021/12/07 03:33:25;;;;;;;4.13;3.33;;;3.30;82.60;;;;;;5034032;28;20045;-67
2021/12/07 03:35:51;;;;;;;3.50;3.20;;;3.30;82.50;;;;;;5033977;28;20091;-67
2021/12/07 03:38:17;;;;;;;3.40;3.10;;;3.30;82.50;;;;;;5035452;28;20071;-67
2021/12/07 03:40:42;;;;;;;3.38;3.08;;;3.30;82.80;;;;;;5030877;28;20128;-66
2021/12/07 03:43:10;;;;;;;3.00;2.70;;;3.30;83.30;;;;;;5034373;28;20042;-67
2021/12/07 03:45:36;;;;;;;3.30;3.00;;;3.40;82.60;;;;;;5035774;28;20124;-67
2021/12/07 03:48:04;;;;;;;2.63;2.42;;;3.40;82.60;;;;;;5035174;28;20120;-67
2021/12/07 03:50:30;;;;;;;2.75;2.55;;;3.40;82.50;;;;;;5034218;28;20045;-67
2021/12/07 03:52:55;;;;;;;3.03;2.75;;;3.30;83.30;;;;;;5031617;28;20055;-67
2021/12/07 03:55:22;;;;;;;2.80;2.60;;;3.40;82.50;;;;;;5036136;28;20562;-67
2021/12/07 03:57:48;;;;;;;2.85;2.60;;;3.40;82.60;;;;;;5033429;28;20523;-66
2021/12/07 04:00:19;;;;;;;3.72;2.55;;;3.40;82.50;;;;;;5034188;28;20044;-66
2021/12/07 04:02:46;;;;;;;2.90;2.70;;;3.40;82.50;;;;;;5034202;28;20041;-66
2021/12/07 04:05:15;;;;;;;2.83;2.63;;;3.40;82.50;;;;;;5034100;28;20639;-66
2021/12/07 04:07:42;;;;;;;2.72;2.53;;;3.40;82.50;;;;;;5034815;28;20033;-67
2021/12/07 04:10:10;;;;;;;3.65;2.35;;;3.50;82.60;;;;;;5035295;28;20037;-66
2021/12/07 04:12:36;;;;;;;2.17;2.00;;;3.50;82.60;;;;;;5036844;28;20044;-67
2021/12/07 04:15:04;;;;;;;2.50;2.30;;;3.50;82.60;;;;;;5039022;28;20061;-66
2021/12/07 04:17:30;;;;;;;2.38;2.17;;;3.50;82.60;;;;;;5035572;28;20060;-67
2021/12/07 04:19:56;;;;;;;2.25;2.05;;;3.50;82.60;;;;;;5040807;28;20118;-67
2021/12/07 04:22:22;;;;;;;2.35;2.15;;;3.50;82.50;;;;;;5036055;28;20025;-66
2021/12/07 04:24:47;;;;;;;2.15;2.00;;;3.60;82.70;;;;;;5037095;28;20502;-67
2021/12/07 04:27:13;;;;;;;2.30;2.10;;;3.60;82.60;;;;;;5036893;28;20523;-67
2021/12/07 04:29:39;;;;;;;1.90;1.80;;;3.50;82.50;;;;;;5037226;28;20056;-67
2021/12/07 04:32:05;;;;;;;2.00;1.90;;;3.60;82.60;;;;;;5037322;28;20512;-67
2021/12/07 04:34:30;;;;;;;2.30;2.10;;;3.60;82.60;;;;;;5038727;28;20021;-68
2021/12/07 04:36:56;;;;;;;2.30;2.10;;;3.50;82.70;;;;;;5035225;28;20040;-67
2021/12/07 04:39:22;;;;;;;2.20;2.00;;;3.60;82.80;;;;;;5036532;28;20064;-67
2021/12/07 04:41:49;;;;;;;2.20;2.03;;;3.60;82.80;;;;;;5035170;28;20025;-67
2021/12/07 04:44:16;;;;;;;2.03;1.92;;;3.60;82.70;;;;;;5037568;28;20033;-65
2021/12/07 04:46:50;;;;;;;2.15;2.05;;;3.60;82.70;;;;;;5034838;28;20095;-66
2021/12/07 05:00:15;;;;;;;2.70;2.50;;;3.70;83.00;;;;;;5038440;28;19920;-66
2021/12/07 05:02:44;;;;;;;2.50;2.30;;;3.70;82.50;;;;;;5039272;28;20615;-68
2021/12/07 05:05:12;;;;;;;2.63;2.42;;;3.70;82.80;;;;;;5036046;28;20045;-68
2021/12/07 05:07:43;;;;;;;2.90;2.60;;;3.70;82.60;;;;;;5039208;28;20037;-67
2021/12/07 05:10:23;;;;;;;2.88;2.67;;;3.70;82.60;;;;;;5037276;28;20029;-67
2021/12/07 05:18:02;;;;;;;2.97;2.38;;;3.70;82.40;;;;;;5035965;28;20029;-68
2021/12/07 05:34:29;;;;;;;3.03;2.73;;;3.70;82.30;;;;;;5034089;28;20167;-67
2021/12/07 05:34:50;;;;;;;19.23;10.73;;;3.70;82.10;;;;;;5038635;28;20056;-67
2021/12/07 05:40:02;;;;;;;4.70;4.30;;;3.70;82.00;;;;;;5037737;28;20669;-66
2021/12/07 05:42:28;;;;;;;4.00;3.63;;;3.60;81.90;;;;;;5036572;28;20036;-66
2021/12/07 05:44:55;;;;;;;3.22;2.88;;;3.60;82.00;;;;;;5037244;28;20404;-67
2021/12/07 05:47:21;;;;;;;3.28;3.03;;;3.60;82.00;;;;;;5036893;28;20032;-67
2021/12/07 05:49:47;;;;;;;4.05;3.67;;;3.60;82.00;;;;;;5037026;28;20579;-67
2021/12/07 05:52:13;;;;;;;2.70;2.50;;;3.60;81.90;;;;;;5034417;28;20056;-67
2021/12/07 05:54:38;;;;;;;3.42;3.13;;;3.50;81.90;;;;;;5038866;28;20179;-67
2021/12/07 05:57:04;;;;;;;2.70;2.50;;;3.50;82.00;;;;;;5037441;28;20041;-66
2021/12/07 05:59:31;;;;;;;3.80;2.90;;;3.50;82.00;;;;;;5036604;28;20508;-66
2021/12/07 06:01:56;;;;;;;3.47;3.15;;;3.50;82.00;;;;;;5036774;28;20931;-67
2021/12/07 06:04:22;;;;;;;4.68;4.15;;;3.50;82.00;;;;;;5038547;28;20041;-67
2021/12/07 06:06:48;;;;;;;5.00;4.55;;;3.50;82.10;;;;;;5035216;28;20064;-67
2021/12/07 06:09:13;;;;;;;4.00;3.60;;;3.50;82.20;;;;;;5038718;28;20128;-66
2021/12/07 06:11:40;;;;;;;3.55;3.10;;;3.50;82.30;;;;;;5037675;28;20040;-67
2021/12/07 06:14:05;;;;;;;4.63;3.20;;;3.50;82.30;;;;;;5036610;28;20553;-68
2021/12/07 06:16:32;;;;;;;3.40;2.92;;;3.50;82.30;;;;;;5037210;28;20029;-67
2021/12/07 06:18:58;;;;;;;3.30;3.00;;;3.50;82.40;;;;;;5038984;28;20172;-67
2021/12/07 06:21:25;;;;;;;3.15;2.85;;;3.50;82.50;;;;;;5038976;28;20149;-67
2021/12/07 06:23:52;;;;;;;3.10;2.80;;;3.50;82.40;;;;;;5041993;28;20519;-67
2021/12/07 06:26:18;;;;;;;3.28;2.78;;;3.50;82.40;;;;;;5036355;28;20025;-67
2021/12/07 06:28:43;;;;;;;4.35;2.90;;;3.50;82.40;;;;;;5035496;28;20431;-66
2021/12/07 06:31:09;;;;;;;2.63;2.42;;;3.50;82.70;;;;;;5035777;28;20436;-67
2021/12/07 06:33:35;;;;;;;2.70;2.50;;;3.50;82.50;;;;;;5037652;28;20047;-67
2021/12/07 06:36:03;;;;;;;2.50;2.30;;;3.40;82.30;;;;;;5035856;28;20128;-67
2021/12/07 06:38:31;;;;;;;3.40;2.65;;;3.50;82.50;;;;;;5034832;28;20033;-66
2021/12/07 06:40:58;;;;;;;3.00;2.70;;;3.50;82.50;;;;;;5036870;28;20068;-67
2021/12/07 06:43:24;;;;;;;2.47;2.28;;;3.50;82.60;;;;;;5035997;28;20033;-67
2021/12/07 06:45:50;;;;;;;2.47;2.28;;;3.50;82.70;;;;;;5035398;28;20044;-67
2021/12/07 06:48:15;;;;;;;2.55;2.35;;;3.50;82.80;;;;;;5035869;28;20112;-67
2021/12/07 06:50:42;;;;;;;2.10;2.00;;;3.50;82.80;;;;;;5035419;28;20127;-67
2021/12/07 06:53:07;;;;;;;2.53;2.25;;;3.50;83.50;;;;;;5035865;28;20038;-66
2021/12/07 06:55:34;;;;;;;2.55;2.28;;;3.50;82.70;;;;;;5034776;28;20454;-67
2021/12/07 06:57:59;;;;;;;2.80;2.30;;;3.60;82.80;;;;;;5035533;28;20508;-67
2021/12/07 07:00:26;;;;;;;2.80;2.00;;;3.60;82.70;;;;;;5034785;28;20110;-66
2021/12/07 07:02:51;;;;;;;2.85;2.35;;;3.60;82.70;;;;;;5036664;28;20519;-67
2021/12/07 07:05:17;;;;;;;2.33;2.00;;;3.60;82.70;;;;;;5038372;28;20037;-67
2021/12/07 07:07:44;;;;;;;2.08;1.92;;;3.70;82.70;;;;;;5036149;28;20037;-67
2021/12/07 07:10:13;;;;;;;2.03;1.83;;;3.70;82.70;;;;;;5037213;28;20037;-67
2021/12/07 07:12:39;;;;;;;2.20;2.00;;;3.70;82.60;;;;;;5034201;28;20030;-66
2021/12/07 07:15:07;;;;;;;2.60;2.00;;;3.70;82.60;;;;;;5035962;28;20041;-66
2021/12/07 07:17:32;;;;;;;2.20;2.00;;;3.70;82.60;;;;;;5034877;28;20029;-67
2021/12/07 07:19:58;;;;;;;2.72;2.00;;;3.70;82.50;;;;;;5036192;28;20041;-66
2021/12/07 07:22:24;;;;;;;2.90;2.45;;;3.70;82.50;;;;;;5037081;28;20500;-66
2021/12/07 07:24:49;;;;;;;3.50;2.45;;;3.70;82.50;;;;;;5034576;28;20037;-67
2021/12/07 07:27:15;;;;;;;3.42;2.50;;;3.70;82.50;;;;;;5032784;28;20041;-67
2021/12/07 07:29:41;;;;;;;3.75;2.28;;;3.70;82.30;;;;;;5032161;28;20047;-67
2021/12/07 07:32:07;;;;;;;3.80;2.17;;;3.70;82.30;;;;;;5032350;28;20140;-67
2021/12/07 07:34:32;;;;;;;2.15;1.95;;;3.80;82.40;;;;;;5032682;28;20555;-66
2021/12/07 07:36:58;;;;;;;2.85;2.05;;;3.80;82.30;;;;;;5032307;28;20061;-67
2021/12/07 07:39:24;;;;;;;3.22;2.05;;;3.80;82.30;;;;;;5033664;28;20032;-66
2021/12/07 07:41:50;;;;;;;2.92;1.98;;;3.80;82.30;;;;;;5032618;28;20481;-66
2021/12/07 07:44:15;;;;;;;5.78;2.20;;;3.80;82.30;;;;;;5032536;28;20561;-67
2021/12/07 07:46:41;;;;;;;3.17;1.65;;;3.80;82.20;;;;;;5030691;28;20607;-67
2021/12/07 07:49:07;;;;;;;3.28;1.88;;;3.80;82.10;;;;;;5033050;28;20026;-66
2021/12/07 07:51:34;;;;;;;4.25;2.03;;;3.90;82.10;;;;;;5033666;28;20682;-67
2021/12/07 07:54:00;;;;;;;3.20;1.85;;;3.90;82.10;;;;;;5036689;28;20124;-67
2021/12/07 07:56:27;;;;;;;4.82;2.20;;;3.90;82.10;;;;;;5034343;28;20345;-67
2021/12/07 07:58:54;;;;;;;3.00;1.88;;;3.90;82.00;;;;;;5034508;28;20033;-66
2021/12/07 08:01:20;;;;;;;2.58;1.60;;;3.80;81.80;;;;;;5041878;28;20041;-67
2021/12/07 08:03:46;;;;;;;2.35;1.67;;;3.90;81.80;;;;;;5033563;28;20041;-67
2021/12/07 08:06:12;;;;;;;2.88;1.85;;;3.90;81.70;;;;;;5035272;28;20037;-67
2021/12/07 08:08:37;;;;;;;2.63;2.00;;;3.90;81.50;;;;;;5034996;28;20025;-65
2021/12/07 08:11:03;;;;;;;1.95;1.83;;;3.90;81.70;;;;;;5035746;28;20652;-67
2021/12/07 08:13:32;;;;;;;3.50;2.33;;;3.90;81.60;;;;;;5035246;28;20432;-67
2021/12/07 08:15:58;;;;;;;4.45;2.47;;;3.90;81.70;;;;;;5034963;28;20048;-67
2021/12/07 08:18:23;;;;;;;2.95;2.10;;;3.90;81.80;;;;;;5034566;28;20029;-67
2021/12/07 08:20:49;;;;;;;3.60;2.17;;;3.90;81.80;;;;;;5036144;28;20428;-67
2021/12/07 08:23:15;;;;;;;3.17;2.35;;;4.00;81.80;;;;;;5040417;28;20041;-66
2021/12/07 08:25:45;;;;;;;4.50;1.88;;;3.90;81.70;;;;;;5035808;28;20041;-67
2021/12/07 08:28:13;;;;;;;4.13;2.13;;;3.90;81.60;;;;;;5034171;28;20080;-67
2021/12/07 08:30:43;;;;;;;3.17;1.90;;;4.00;81.70;;;;;;5032764;28;20025;-68
2021/12/07 08:33:10;;;;;;;1.98;1.65;;;4.00;81.60;;;;;;5031735;28;20045;-67
2021/12/07 08:35:38;;;;;;;2.90;1.80;;;4.00;81.60;;;;;;5034522;28;20041;-68
2021/12/07 08:38:04;;;;;;;3.22;2.10;;;4.00;81.60;;;;;;5035385;28;20033;-66
2021/12/07 08:40:33;;;;;;;2.75;2.00;;;4.00;81.40;;;;;;5033178;28;20033;-68
2021/12/07 08:42:59;;;;;;;4.55;2.00;;;4.00;81.30;;;;;;5034543;28;20052;-67
2021/12/07 08:45:27;;;;;;;1.95;1.70;;;4.00;81.30;;;;;;5035389;28;20044;-67
2021/12/07 08:47:54;;;;;;;1.63;1.50;;;4.10;81.30;;;;;;5035336;28;20450;-67
2021/12/07 08:50:24;;;;;;;2.00;1.80;;;4.10;81.30;;;;;;5032937;28;20037;-67
2021/12/07 08:52:53;;;;;;;2.22;1.77;;;4.10;81.30;;;;;;5035202;28;20029;-67
2021/12/07 09:00:50;;;;;;;2.28;1.67;;;4.10;81.20;;;;;;5038218;28;20040;-67
2021/12/07 09:03:16;;;;;;;2.22;1.90;;;4.10;81.10;;;;;;5036411;28;20029;-67
2021/12/07 09:05:41;;;;;;;3.00;2.08;;;4.10;81.10;;;;;;5035900;28;20505;-67
2021/12/07 09:08:07;;;;;;;5.22;3.10;;;4.20;81.10;;;;;;5039177;28;20547;-67
2021/12/07 09:10:33;;;;;;;3.58;2.63;;;4.20;81.20;;;;;;5037513;28;20067;-67
2021/12/07 09:12:58;;;;;;;5.68;2.45;;;4.10;82.00;;;;;;5037001;28;20045;-70
2021/12/07 09:15:24;;;;;;;4.47;2.85;;;4.20;81.10;;;;;;5038904;28;20045;-65
2021/12/07 09:17:50;;;;;;;5.43;3.00;;;4.20;81.10;;;;;;5040473;28;20041;-67
2021/12/07 09:20:17;;;;;;;3.75;2.35;;;4.20;80.90;;;;;;5039709;28;20029;-67
2021/12/07 09:22:47;;;;;;;6.80;2.72;;;4.20;80.90;;;;;;5039732;28;20033;-67
2021/12/07 09:25:15;;;;;;;5.10;2.90;;;4.30;80.80;;;;;;5038872;28;20094;-67
2021/12/07 09:27:41;;;;;;;4.93;2.78;;;4.30;80.80;;;;;;5038144;28;20037;-67
2021/12/07 09:30:09;;;;;;;5.80;3.63;;;4.30;80.70;;;;;;5038872;28;20109;-67
2021/12/07 09:32:35;;;;;;;5.15;2.40;;;4.30;80.60;;;;;;5038239;28;20128;-67
2021/12/07 09:35:02;;;;;;;6.88;4.35;;;4.30;80.50;;;;;;5039679;28;20123;-67
2021/12/07 09:37:28;;;;;;;4.00;2.70;;;4.30;80.50;;;;;;5037112;28;20431;-67
2021/12/07 09:39:54;;;;;;;6.85;4.93;;;4.30;80.60;;;;;;5040079;28;20040;-67
2021/12/07 09:42:20;;;;;;;2.80;2.28;;;4.40;80.60;;;;;;5040084;28;20034;-66
2021/12/07 09:44:46;;;;;;;3.95;2.20;;;4.40;80.60;;;;;;5037291;28;20045;-67
2021/12/07 09:47:12;;;;;;;4.45;2.03;;;4.40;80.60;;;;;;5038519;28;20147;-67
2021/12/07 09:49:38;;;;;;;7.00;2.60;;;4.40;80.60;;;;;;5037497;28;20044;-67
2021/12/07 09:52:04;;;;;;;4.38;1.88;;;4.40;80.40;;;;;;5035499;28;20060;-67
2021/12/07 09:54:30;;;;;;;3.58;1.58;;;4.50;80.40;;;;;;5039218;28;20560;-67
2021/12/07 09:56:55;;;;;;;5.25;1.67;;;4.50;80.20;;;;;;5038491;28;20033;-67
2021/12/07 09:59:21;;;;;;;3.50;1.55;;;4.50;80.20;;;;;;5037168;28;20048;-67
2021/12/07 10:01:47;;;;;;;4.53;1.50;;;4.50;80.10;;;;;;5039132;28;20504;-67
2021/12/07 10:04:12;;;;;;;2.97;1.63;;;4.60;80.00;;;;;;5036661;28;20091;-67
2021/12/07 10:06:39;;;;;;;2.35;1.38;;;4.60;79.90;;;;;;5038331;28;20385;-67
2021/12/07 10:09:06;;;;;;;2.42;1.60;;;4.60;79.90;;;;;;5036814;28;20064;-64
2021/12/07 10:11:32;;;;;;;4.07;1.50;;;4.60;79.70;;;;;;5034818;28;20045;-67
2021/12/07 10:13:58;;;;;;;5.13;1.80;;;4.60;79.70;;;;;;5035925;28;20151;-66
2021/12/07 10:16:24;;;;;;;5.97;3.72;;;4.70;79.90;;;;;;5038714;28;20637;-67
2021/12/07 10:18:51;;;;;;;3.78;2.22;;;4.70;79.80;;;;;;5051017;28;20048;-67
2021/12/07 10:21:38;;;;;;;3.13;2.15;;;4.80;79.70;;;;;;5038945;28;20041;-67
2021/12/07 10:24:08;;;;;;;2.00;1.80;;;4.80;79.20;;;;;;5038789;28;20033;-67
2021/12/07 10:26:37;;;;;;;4.25;1.80;;;4.80;79.50;;;;;;5038582;28;20041;-68
2021/12/07 10:29:21;;;;;;;4.47;2.08;;;4.80;79.40;;;;;;5035915;28;20043;-66
2021/12/07 10:31:51;;;;;;;2.30;1.88;;;4.90;79.20;;;;;;5038658;28;20304;-67
2021/12/07 10:34:22;;;;;;;3.83;1.40;;;4.90;80.40;;;;;;5036814;28;20128;-67
2021/12/07 10:36:56;;;;;;;3.60;1.30;;;5.00;79.50;;;;;;5036724;28;20025;-67
2021/12/07 10:39:27;;;;;;;6.70;2.78;;;5.00;79.50;;;;;;5042426;28;20045;-66
2021/12/07 10:41:56;;;;;;;4.03;1.88;;;5.10;79.30;;;;;;5037488;28;20032;-66
2021/12/07 10:44:32;;;;;;;5.18;2.00;;;5.10;79.00;;;;;;5036796;28;20029;-67
2021/12/07 10:47:08;;;;;;;3.20;1.63;;;5.10;78.30;;;;;;5035417;28;20075;-67
2021/12/07 10:49:41;;;;;;;2.17;1.85;;;5.20;79.20;;;;;;5035813;28;20112;-67
2021/12/07 10:52:09;;;;;;;3.30;1.67;;;5.20;78.80;;;;;;5037270;28;20048;-66
2021/12/07 10:54:46;;;;;;;3.75;1.50;;;5.20;78.90;;;;;;5037271;28;20036;-66
2021/12/07 10:57:23;;;;;;;3.03;1.60;;;5.30;78.80;;;;;;5035088;28;20509;-69
2021/12/07 10:59:55;;;;;;;2.28;1.45;;;5.40;78.30;;;;;;5038057;28;20040;-66
2021/12/07 11:02:22;;;;;;;2.80;1.50;;;5.40;78.30;;;;;;5039223;28;20041;-66
2021/12/07 11:04:49;;;;;;;4.93;3.10;;;5.50;78.30;;;;;;5034416;28;20048;-67
2021/12/07 11:07:26;;;;;;;2.75;1.75;;;5.50;78.00;;;;;;5036844;28;20076;-67
2021/12/07 11:10:17;;;;;;;4.97;2.45;;;5.60;77.40;;;;;;5036346;28;20151;-66
2021/12/07 11:15:37;;;;;;;3.10;1.55;;;5.80;77.70;;;;;;5035515;28;20037;-64
2021/12/07 11:18:11;;;;;;;2.40;1.95;;;5.80;78.60;;;;;;5036232;28;20042;-66
2021/12/07 11:20:38;;;;;;;5.97;2.60;;;5.90;77.40;;;;;;5035242;28;20083;-66
2021/12/07 11:23:06;;;;;;;7.35;4.28;;;6.00;77.60;;;;;;5038200;28;20028;-66
2021/12/07 11:31:16;;;;;;;3.72;1.77;;;6.30;76.70;;;;;;5036310;28;20060;-66
2021/12/07 11:33:42;;;;;;;6.03;2.50;;;6.30;76.60;;;;;;5036170;28;20501;-66
2021/12/07 11:36:28;;;;;;;6.28;4.32;;;6.40;76.10;;;;;;5034749;28;20036;-66
2021/12/07 11:38:55;;;;;;;2.75;1.88;;;6.40;75.30;;;;;;5036382;28;20064;-66
2021/12/07 11:41:33;;;;;;;7.53;2.10;;;6.40;75.80;;;;;;5036015;28;20064;-66
2021/12/07 11:44:00;;;;;;;4.00;1.40;;;6.50;75.30;;;;;;5033959;28;20099;-67
2021/12/07 11:46:28;;;;;;;4.60;1.80;;;6.50;75.20;;;;;;5032385;28;20128;-66
2021/12/07 11:49:24;;;;;;;3.50;1.60;;;6.50;74.90;;;;;;5034572;28;20659;-66
2021/12/07 11:51:53;;;;;;;6.47;1.75;;;6.50;74.30;;;;;;5034011;28;20100;-67
2021/12/07 11:54:21;;;;;;;6.88;1.90;;;6.50;74.50;;;;;;5033868;28;20083;-66
2021/12/07 11:56:47;;;;;;;3.88;1.70;;;6.50;74.50;;;;;;5036105;28;20041;-67
2021/12/07 11:59:14;;;;;;;4.53;1.40;;;6.50;74.20;;;;;;5034616;28;20037;-66
2021/12/07 12:01:41;;;;;;;3.85;1.40;;;6.40;74.10;;;;;;5032618;28;20029;-67
2021/12/07 12:04:07;;;;;;;1.55;1.38;;;6.30;74.10;;;;;;5033513;28;20033;-66
2021/12/07 12:06:33;;;;;;;3.83;1.70;;;6.30;74.10;;;;;;5032625;28;21126;-67
2021/12/07 12:09:00;;;;;;;4.30;1.42;;;6.20;74.00;;;;;;5038785;28;20042;-66
2021/12/07 12:11:40;;;;;;;3.15;1.27;;;6.20;74.00;;;;;;5041627;28;20128;-69
2021/12/07 12:14:21;;;;;;;2.47;1.30;;;6.10;73.40;;;;;;5038790;28;20695;-69
2021/12/07 12:16:53;;;;;;;4.70;1.45;;;6.10;74.00;;;;;;5037197;28;20043;-69
2021/12/07 12:19:37;;;;;;;3.63;1.33;;;6.10;73.50;;;;;;5038652;28;20042;-68
2021/12/07 12:22:21;;;;;;;5.13;1.38;;;6.00;73.80;;;;;;5037774;28;20037;-65
2021/12/07 12:24:54;;;;;;;3.88;1.30;;;6.00;73.70;;;;;;5037544;28;20500;-66
2021/12/07 12:27:33;;;;;;;2.78;1.35;;;6.00;74.00;;;;;;5037839;28;20532;-69
2021/12/07 12:30:03;;;;;;;5.38;1.40;;;6.00;73.60;;;;;;5043274;28;20037;-66
2021/12/07 12:32:36;;;;;;;4.40;1.10;;;6.00;74.10;;;;;;5042275;28;20056;-66
2021/12/07 12:35:03;;;;;;;4.18;1.13;;;6.00;74.20;;;;;;5041639;28;20116;-66
2021/12/07 12:37:31;;;;;;;4.57;1.10;;;6.00;74.30;;;;;;5041763;28;20026;-66
2021/12/07 12:39:58;;;;;;;3.53;1.27;;;6.00;74.20;;;;;;5042296;28;20400;-66
2021/12/07 12:42:29;;;;;;;1.95;0.90;;;6.00;74.10;;;;;;5042182;28;20045;-66
2021/12/07 12:45:17;;;;;;;3.90;1.20;;;6.00;73.80;;;;;;5041606;28;20481;-68
2021/12/07 12:47:43;;;;;;;4.40;1.42;;;6.00;73.40;;;;;;5041188;28;20083;-67
2021/12/07 12:50:20;;;;;;;2.70;1.00;;;6.00;74.10;;;;;;5042990;28;20518;-68
2021/12/07 12:52:55;;;;;;;2.35;1.02;;;6.00;73.40;;;;;;5041469;28;20526;-69
2021/12/07 12:55:27;;;;;;;2.15;1.10;;;6.00;73.70;;;;;;5041863;28;20496;-65
2021/12/07 12:57:53;;;;;;;3.58;1.25;;;6.10;74.00;;;;;;5041211;28;20175;-66
2021/12/07 13:00:19;;;;;;;2.35;1.38;;;6.00;74.30;;;;;;5041621;28;20509;-68
2021/12/07 13:02:54;;;;;;;4.13;1.75;;;6.00;74.40;;;;;;5040863;28;20045;-65
2021/12/07 13:05:34;;;;;;;2.10;1.23;;;6.00;74.20;;;;;;5042068;28;20037;-65
2021/12/07 13:08:17;;;;;;;3.13;1.67;;;5.90;74.10;;;;;;5041390;28;20033;-69
2021/12/07 13:11:03;;;;;;;3.85;2.17;;;5.90;74.10;;;;;;5040142;28;20039;-69
2021/12/07 13:13:35;;;;;;;8.45;2.13;;;5.90;74.10;;;;;;5038277;28;20541;-67
2021/12/07 13:16:17;;;;;;;4.28;1.60;;;5.80;74.40;;;;;;5038656;28;20041;-68
2021/12/07 13:18:43;;;;;;;2.72;1.70;;;5.80;75.20;;;;;;5035663;28;20057;-68
2021/12/07 13:21:29;;;;;;;4.80;1.75;;;5.80;74.70;;;;;;5038674;28;20128;-65
2021/12/07 13:24:07;;;;;;;5.32;1.90;;;5.80;74.80;;;;;;5038474;28;20037;-67
2021/12/07 13:26:40;;;;;;;6.40;1.60;;;5.80;75.20;;;;;;5037600;28;20576;-66
2021/12/07 13:29:15;;;;;;;3.60;1.70;;;5.80;75.20;;;;;;5038939;28;20052;-69
2021/12/07 13:31:44;;;;;;;3.28;1.73;;;5.80;75.20;;;;;;5038206;28;20033;-66
2021/12/07 13:34:13;;;;;;;3.70;1.67;;;5.90;75.00;;;;;;5037852;28;20072;-65
2021/12/07 13:36:43;;;;;;;6.40;1.90;;;5.90;74.80;;;;;;5036717;28;20037;-66
2021/12/07 13:39:16;;;;;;;5.35;1.60;;;5.90;74.90;;;;;;5038405;28;20028;-66
2021/12/07 13:42:07;;;;;;;6.55;1.92;;;5.90;74.10;;;;;;5039239;28;20033;-69
2021/12/07 13:44:46;;;;;;;3.58;1.50;;;5.90;73.30;;;;;;5031848;28;20701;-66
2021/12/07 13:47:24;;;;;;;3.53;1.58;;;6.00;73.60;;;;;;5039144;28;20512;-68
2021/12/07 13:49:56;;;;;;;1.45;1.00;;;6.00;73.60;;;;;;5038396;28;20037;-66
2021/12/07 13:52:25;;;;;;;2.75;1.17;;;6.00;73.30;;;;;;5051921;28;20168;-68
2021/12/07 13:54:54;;;;;;;4.15;1.10;;;6.00;73.10;;;;;;5040511;28;20400;-68
2021/12/07 13:57:25;;;;;;;2.20;1.33;;;6.10;73.10;;;;;;5037623;28;20029;-66
2021/12/07 14:00:04;;;;;;;2.75;1.48;;;6.10;72.90;;;;;;5037381;28;20389;-68
2021/12/07 14:02:30;;;;;;;5.93;1.90;;;6.10;72.60;;;;;;5038058;28;20509;-68
2021/12/07 14:05:18;;;;;;;5.55;1.67;;;6.10;73.10;;;;;;5039825;28;20041;-68
2021/12/07 14:07:45;;;;;;;4.25;2.15;;;6.10;72.60;;;;;;5035887;28;20029;-68
2021/12/07 14:10:22;;;;;;;4.75;2.00;;;6.10;73.10;;;;;;5038736;28;20504;-68
2021/12/07 14:12:50;;;;;;;3.92;1.85;;;6.20;72.70;;;;;;5034304;28;21396;-68
2021/12/07 14:15:23;;;;;;;3.83;1.90;;;6.20;72.70;;;;;;5039966;28;20043;-68
2021/12/07 14:18:01;;;;;;;4.30;1.58;;;6.20;72.70;;;;;;5036518;28;20033;-69
2021/12/07 14:20:29;;;;;;;2.97;1.73;;;6.20;72.60;;;;;;5038908;28;20064;-65
2021/12/07 14:22:55;;;;;;;4.07;1.52;;;6.10;72.80;;;;;;5037978;28;20110;-68
2021/12/07 14:25:21;;;;;;;3.92;2.35;;;6.10;72.50;;;;;;5036866;28;20056;-68
2021/12/07 14:27:47;;;;;;;5.00;2.10;;;6.10;72.50;;;;;;5033115;28;20344;-67
2021/12/07 14:30:15;;;;;;;4.15;1.20;;;6.10;73.40;;;;;;5038519;28;20034;-68
2021/12/07 14:32:42;;;;;;;2.40;1.40;;;6.10;72.40;;;;;;5035822;28;20036;-68
2021/12/07 14:35:08;;;;;;;7.60;3.28;;;6.00;72.30;;;;;;5038040;28;20188;-68
2021/12/07 14:37:33;;;;;;;6.55;2.10;;;6.00;72.20;;;;;;5036041;28;20597;-65
2021/12/07 14:39:59;;;;;;;4.03;1.92;;;6.00;72.20;;;;;;5040866;28;20056;-68
2021/12/07 14:42:24;;;;;;;3.15;1.58;;;5.90;72.20;;;;;;5036406;28;20073;-66
2021/12/07 14:44:56;;;;;;;4.50;1.85;;;5.90;72.10;;;;;;5037554;28;20072;-68